createdAt,value
2018-03-24T00:00:09.753Z,4.85
2018-03-24T00:02:39.965Z,2.05
2018-03-24T00:05:09.431Z,2.67
2018-03-24T00:07:39.368Z,3.03
2018-03-24T00:10:09.716Z,5.40
2018-03-24T00:12:38.952Z,12.35
2018-03-24T00:15:09.037Z,7.95
2018-03-24T00:17:38.963Z,1.90
2018-03-24T00:20:08.274Z,3.05
2018-03-24T00:22:37.523Z,2.62
2018-03-24T00:25:07.970Z,4.25
2018-03-24T00:27:37.074Z,3.33
2018-03-24T00:30:06.619Z,2.70
2018-03-24T00:32:36.077Z,2.03
2018-03-24T00:35:05.431Z,2.60
2018-03-24T00:37:35.138Z,2.47
2018-03-24T00:40:04.218Z,1.92
2018-03-24T00:42:33.486Z,2.60
2018-03-24T00:45:02.787Z,2.35
2018-03-24T00:47:31.886Z,2.62
2018-03-24T00:50:03.912Z,2.30
2018-03-24T00:52:34.038Z,3.45
2018-03-24T00:55:05.425Z,3.85
2018-03-24T00:57:36.396Z,2.90
2018-03-24T01:00:05.727Z,2.50
2018-03-24T01:02:35.195Z,2.53
2018-03-24T01:05:04.459Z,2.80
2018-03-24T01:07:34.903Z,3.00
2018-03-24T01:10:04.203Z,2.12
2018-03-24T01:12:33.609Z,3.25
2018-03-24T01:15:02.971Z,3.58
2018-03-24T01:17:32.928Z,2.40
2018-03-24T01:20:03.260Z,2.33
2018-03-24T01:22:32.773Z,3.22
2018-03-24T01:25:02.609Z,3.40
2018-03-24T01:27:31.934Z,4.55
2018-03-24T01:30:01.262Z,2.78
2018-03-24T01:32:31.139Z,2.78
2018-03-24T01:35:02.630Z,2.55
2018-03-24T01:37:33.215Z,2.90
2018-03-24T01:40:02.887Z,3.50
2018-03-24T01:42:32.037Z,3.70
2018-03-24T01:45:06.809Z,3.75
2018-03-24T01:47:36.082Z,4.30
2018-03-24T01:50:06.201Z,26.15
2018-03-24T01:52:36.327Z,6.40
2018-03-24T01:55:06.443Z,3.67
2018-03-24T01:57:36.594Z,23.10
2018-03-24T02:00:06.881Z,11.52
2018-03-24T02:02:38.604Z,16.25
2018-03-24T02:05:08.354Z,5.68
2018-03-24T02:07:37.790Z,5.82
2018-03-24T02:10:08.644Z,18.33
2018-03-24T02:12:37.745Z,12.23
2018-03-24T02:15:07.087Z,8.25
2018-03-24T02:17:36.557Z,15.30
2018-03-24T02:20:05.831Z,6.82
2018-03-24T02:22:35.232Z,4.93
2018-03-24T02:25:06.703Z,8.25
2018-03-24T02:27:36.914Z,6.55
2018-03-24T02:30:07.088Z,7.12
2018-03-24T02:32:36.963Z,6.00
2018-03-24T02:35:06.242Z,3.00
2018-03-24T02:37:35.944Z,2.08
2018-03-24T02:40:05.324Z,5.43
2018-03-24T02:42:34.993Z,9.70
2018-03-24T02:45:04.420Z,10.68
2018-03-24T02:47:33.802Z,5.20
2018-03-24T02:50:03.096Z,8.10
2018-03-24T02:52:32.232Z,6.18
2018-03-24T02:55:02.522Z,8.63
2018-03-24T02:57:34.104Z,6.53
2018-03-24T03:00:03.368Z,5.65
2018-03-24T03:02:32.517Z,4.18
2018-03-24T03:05:02.649Z,4.40
2018-03-24T03:07:32.712Z,4.00
2018-03-24T03:10:02.221Z,4.37
2018-03-24T03:12:31.907Z,3.75
2018-03-24T03:15:01.812Z,4.47
2018-03-24T03:17:31.183Z,4.85
2018-03-24T03:20:01.633Z,4.95
2018-03-24T03:22:31.990Z,3.92
2018-03-24T03:25:01.160Z,4.20
2018-03-24T03:27:31.500Z,3.67
2018-03-24T03:30:01.560Z,4.00
2018-03-24T03:32:32.021Z,7.25
2018-03-24T03:35:01.738Z,9.38
2018-03-24T03:37:31.861Z,6.15
2018-03-24T03:40:01.947Z,6.45
2018-03-24T03:42:31.511Z,5.30
2018-03-24T03:45:00.342Z,6.40
2018-03-24T03:47:29.930Z,7.35
2018-03-24T03:49:59.070Z,8.05
2018-03-24T03:52:28.032Z,7.15
2018-03-24T03:54:59.422Z,6.70
2018-03-24T03:57:29.421Z,5.85
2018-03-24T03:59:58.749Z,5.15
2018-03-24T04:02:27.917Z,4.72
2018-03-24T04:04:58.043Z,3.65
2018-03-24T04:07:27.862Z,2.95
2018-03-24T04:09:56.707Z,3.62
2018-03-24T04:12:25.650Z,2.20
2018-03-24T04:14:54.540Z,3.70
2018-03-24T04:17:24.063Z,3.10
2018-03-24T04:19:53.219Z,2.65
2018-03-24T04:22:22.539Z,2.80
2018-03-24T04:24:51.800Z,3.53
2018-03-24T04:27:20.610Z,4.45
2018-03-24T04:29:50.249Z,4.65
2018-03-24T04:32:19.126Z,4.93
2018-03-24T04:34:48.657Z,3.60
2018-03-24T04:37:18.217Z,3.75
2018-03-24T04:39:47.695Z,4.85
2018-03-24T04:42:17.246Z,4.30
2018-03-24T04:44:46.554Z,3.20
2018-03-24T04:47:15.706Z,3.53
2018-03-24T04:49:45.261Z,2.80
2018-03-24T04:52:14.644Z,2.60
2018-03-24T04:54:43.499Z,3.28
2018-03-24T04:57:13.078Z,5.55
2018-03-24T04:59:41.907Z,4.60
2018-03-24T05:02:12.168Z,4.07
2018-03-24T05:04:41.431Z,5.30
2018-03-24T05:07:10.220Z,4.12
2018-03-24T05:09:39.514Z,4.57
2018-03-24T05:12:09.020Z,5.62
2018-03-24T05:14:38.180Z,4.55
2018-03-24T05:17:07.646Z,4.28
2018-03-24T05:19:36.978Z,5.60
2018-03-24T05:22:06.544Z,4.20
2018-03-24T05:24:35.707Z,4.60
2018-03-24T05:27:05.091Z,5.43
2018-03-24T05:29:34.604Z,4.90
2018-03-24T05:32:03.720Z,5.80
2018-03-24T05:34:32.993Z,5.65
2018-03-24T05:37:03.116Z,7.60
2018-03-24T05:39:32.650Z,6.97
2018-03-24T05:42:02.107Z,7.25
2018-03-24T05:44:31.261Z,9.35
2018-03-24T05:47:00.714Z,10.27
2018-03-24T05:49:30.094Z,9.95
2018-03-24T05:52:01.360Z,8.25
2018-03-24T05:54:31.176Z,9.55
2018-03-24T05:57:01.080Z,11.65
2018-03-24T05:59:30.331Z,7.30
2018-03-24T06:01:59.582Z,7.78
2018-03-24T06:04:28.916Z,8.50
2018-03-24T06:06:59.045Z,12.45
2018-03-24T06:09:28.706Z,8.57
2018-03-24T06:11:58.049Z,10.95
2018-03-24T06:14:27.850Z,8.32
2018-03-24T06:16:57.363Z,9.13
2018-03-24T06:19:26.512Z,9.40
2018-03-24T06:21:56.801Z,11.43
2018-03-24T06:24:27.022Z,11.73
2018-03-24T06:26:56.534Z,9.63
2018-03-24T06:29:26.003Z,11.40
2018-03-24T06:32:06.395Z,9.68
2018-03-24T06:34:36.061Z,11.32
2018-03-24T06:37:06.221Z,8.23
2018-03-24T06:39:42.742Z,10.73
2018-03-24T06:42:12.743Z,7.35
2018-03-24T06:44:42.927Z,6.85
2018-03-24T06:47:12.365Z,9.02
2018-03-24T06:49:41.743Z,11.35
2018-03-24T06:52:11.006Z,10.77
2018-03-24T06:54:47.434Z,10.70
2018-03-24T06:57:17.626Z,15.27
2018-03-24T06:59:47.245Z,10.63
2018-03-24T07:02:16.821Z,13.75
2018-03-24T07:04:46.193Z,13.27
2018-03-24T07:07:15.294Z,12.45
2018-03-24T07:09:44.821Z,9.73
2018-03-24T07:12:14.554Z,15.85
2018-03-24T07:14:44.726Z,10.98
2018-03-24T07:17:14.043Z,10.63
2018-03-24T07:19:43.307Z,20.83
2018-03-24T07:22:14.279Z,14.80
2018-03-24T07:24:43.696Z,15.90
2018-03-24T07:27:12.962Z,17.65
2018-03-24T07:29:42.839Z,13.55
2018-03-24T07:32:12.136Z,11.43
2018-03-24T07:34:41.672Z,9.85
2018-03-24T07:37:11.271Z,14.73
2018-03-24T07:39:40.787Z,19.92
2018-03-24T07:42:10.056Z,12.55
2018-03-24T07:44:40.172Z,20.42
2018-03-24T07:47:10.559Z,10.45
2018-03-24T07:49:40.583Z,10.02
2018-03-24T07:52:10.179Z,9.10
2018-03-24T07:54:40.152Z,9.32
2018-03-24T07:57:10.761Z,8.50
2018-03-24T07:59:47.663Z,12.93
2018-03-24T08:02:17.698Z,11.02
2018-03-24T08:04:47.000Z,5.70
2018-03-24T08:07:16.055Z,9.02
2018-03-24T08:09:46.391Z,9.07
2018-03-24T08:12:17.433Z,10.43
2018-03-24T08:14:48.049Z,6.55
2018-03-24T08:17:18.047Z,9.23
2018-03-24T08:19:47.508Z,8.68
2018-03-24T08:22:16.788Z,8.75
2018-03-24T08:24:46.149Z,6.37
2018-03-24T08:27:15.602Z,6.70
2018-03-24T08:29:44.622Z,5.87
2018-03-24T08:32:14.285Z,5.97
2018-03-24T08:34:44.746Z,7.45
2018-03-24T08:37:14.638Z,8.70
2018-03-24T08:39:43.972Z,8.05
2018-03-24T08:42:13.368Z,7.32
2018-03-24T08:44:43.350Z,7.22
2018-03-24T08:47:12.860Z,5.15
2018-03-24T08:49:43.376Z,5.37
2018-03-24T08:52:12.868Z,5.35
2018-03-24T08:54:42.198Z,10.32
2018-03-24T08:57:12.402Z,8.40
2018-03-24T08:59:42.012Z,8.43
2018-03-24T09:02:11.693Z,6.20
2018-03-24T09:04:41.808Z,4.78
2018-03-24T09:07:12.177Z,6.10
2018-03-24T09:09:41.424Z,7.03
2018-03-24T09:12:12.150Z,5.82
2018-03-24T09:14:41.738Z,6.25
2018-03-24T09:17:10.981Z,6.20
2018-03-24T09:19:40.700Z,5.95
2018-03-24T09:22:10.246Z,6.35
2018-03-24T09:24:40.007Z,7.30
2018-03-24T09:27:09.300Z,6.50
2018-03-24T09:29:38.585Z,5.90
2018-03-24T09:32:07.754Z,6.40
2018-03-24T09:34:36.836Z,4.65
2018-03-24T09:37:06.696Z,6.28
2018-03-24T09:39:36.230Z,5.05
2018-03-24T09:42:05.986Z,4.55
2018-03-24T09:44:35.412Z,4.40
2018-03-24T09:47:05.434Z,3.62
2018-03-24T09:49:35.526Z,3.70
2018-03-24T09:52:04.943Z,3.28
2018-03-24T09:54:35.173Z,3.75
2018-03-24T09:57:05.185Z,4.72
2018-03-24T09:59:34.350Z,3.30
2018-03-24T10:02:03.975Z,3.92
2018-03-24T10:04:33.440Z,3.87
2018-03-24T10:07:03.423Z,3.60
2018-03-24T10:09:34.209Z,3.95
2018-03-24T10:12:03.885Z,3.80
2018-03-24T10:14:33.208Z,4.05
2018-03-24T10:17:02.858Z,3.78
2018-03-24T10:19:32.585Z,4.20
2018-03-24T10:22:08.243Z,4.68
2018-03-24T10:24:37.507Z,4.72
2018-03-24T10:27:07.890Z,4.93
2018-03-24T10:29:36.989Z,4.85
2018-03-24T10:32:06.556Z,4.72
2018-03-24T10:34:36.109Z,7.07
2018-03-24T10:37:05.471Z,5.85
2018-03-24T10:39:34.576Z,4.55
2018-03-24T10:42:04.251Z,6.43
2018-03-24T10:44:33.527Z,5.25
2018-03-24T10:47:02.870Z,4.82
2018-03-24T10:49:32.196Z,6.03
2018-03-24T10:52:01.461Z,6.30
2018-03-24T10:54:31.356Z,6.47
2018-03-24T10:57:01.518Z,6.53
2018-03-24T10:59:30.774Z,4.20
2018-03-24T11:02:01.100Z,5.93
2018-03-24T11:04:30.834Z,5.85
2018-03-24T11:07:00.095Z,5.07
2018-03-24T11:09:29.308Z,4.85
2018-03-24T11:11:58.591Z,5.43
2018-03-24T11:14:27.926Z,5.20
2018-03-24T11:16:57.084Z,4.95
2018-03-24T11:19:26.487Z,5.28
2018-03-24T11:21:55.566Z,4.15
2018-03-24T11:24:25.008Z,3.85
2018-03-24T11:26:54.457Z,4.32
2018-03-24T11:29:23.976Z,2.87
2018-03-24T11:31:53.527Z,3.97
2018-03-24T11:34:23.108Z,3.12
2018-03-24T11:36:52.421Z,3.17
2018-03-24T11:39:22.531Z,3.00
2018-03-24T11:41:52.683Z,2.75
2018-03-24T11:44:21.925Z,3.45
2018-03-24T11:46:51.446Z,3.17
2018-03-24T11:49:21.377Z,3.40
2018-03-24T11:51:50.669Z,3.70
2018-03-24T11:54:31.260Z,2.95
2018-03-24T11:57:00.937Z,3.00
2018-03-24T11:59:31.217Z,3.08
2018-03-24T12:02:00.610Z,2.87
2018-03-24T12:04:29.712Z,2.70
2018-03-24T12:06:59.033Z,4.07
2018-03-24T12:09:29.091Z,3.45
2018-03-24T12:11:58.203Z,3.70
2018-03-24T12:14:27.286Z,3.20
2018-03-24T12:16:56.943Z,3.40
2018-03-24T12:19:26.933Z,2.95
2018-03-24T12:21:58.063Z,3.25
2018-03-24T12:24:27.558Z,3.20
2018-03-24T12:26:57.899Z,2.92
2018-03-24T12:29:27.181Z,3.12
2018-03-24T12:31:56.472Z,3.67
2018-03-24T12:34:26.490Z,3.45
2018-03-24T12:36:55.893Z,3.15
2018-03-24T12:39:25.176Z,4.10
2018-03-24T12:41:54.334Z,3.50
2018-03-24T12:44:24.062Z,4.10
2018-03-24T12:46:53.524Z,3.25
2018-03-24T12:49:22.882Z,4.40
2018-03-24T12:51:52.824Z,4.22
2018-03-24T12:54:22.557Z,2.85
2018-03-24T12:56:51.847Z,3.92
2018-03-24T12:59:20.913Z,3.72
2018-03-24T13:01:50.208Z,3.97
2018-03-24T13:04:19.545Z,3.97
2018-03-24T13:06:48.694Z,4.00
2018-03-24T13:09:18.911Z,3.10
2018-03-24T13:11:49.103Z,2.87
2018-03-24T13:14:19.061Z,2.97
2018-03-24T13:16:48.752Z,2.72
2018-03-24T13:19:18.837Z,2.25
2018-03-24T13:21:48.842Z,2.00
2018-03-24T13:24:18.183Z,2.33
2018-03-24T13:26:48.712Z,1.65
2018-03-24T13:29:18.168Z,1.65
2018-03-24T13:31:49.184Z,1.75
2018-03-24T13:34:20.310Z,2.00
2018-03-24T13:36:50.229Z,1.85
2018-03-24T13:39:19.941Z,2.70
2018-03-24T13:41:49.245Z,2.62
2018-03-24T13:44:18.498Z,2.55
2018-03-24T13:46:47.823Z,2.60
2018-03-24T13:49:16.982Z,2.75
2018-03-24T13:51:46.851Z,2.28
2018-03-24T13:54:16.443Z,2.00
2018-03-24T13:56:46.467Z,2.75
2018-03-24T13:59:15.807Z,1.70
2018-03-24T14:01:45.126Z,1.80
2018-03-24T14:04:14.568Z,2.20
2018-03-24T14:06:45.108Z,3.08
2018-03-24T14:09:14.265Z,2.40
2018-03-24T14:11:43.475Z,3.70
2018-03-24T14:14:13.094Z,10.30
2018-03-24T14:16:42.264Z,6.18
2018-03-24T14:19:11.156Z,4.35
2018-03-24T14:21:40.914Z,2.62
2018-03-24T14:24:09.791Z,4.97
2018-03-24T14:26:38.636Z,2.65
2018-03-24T14:29:08.365Z,2.20
2018-03-24T14:31:37.666Z,1.83
2018-03-24T14:34:08.235Z,1.85
2018-03-24T14:36:37.511Z,1.75
2018-03-24T14:39:08.044Z,1.80
2018-03-24T14:41:37.333Z,1.80
2018-03-24T14:44:07.007Z,1.55
2018-03-24T14:46:36.293Z,1.45
2018-03-24T14:49:06.870Z,2.12
2018-03-24T14:51:36.341Z,1.67
2018-03-24T14:54:05.657Z,1.62
2018-03-24T14:56:35.373Z,1.55
2018-03-24T14:59:04.671Z,1.70
2018-03-24T15:01:34.633Z,1.70
2018-03-24T15:04:04.224Z,1.45
2018-03-24T15:06:33.622Z,1.60
2018-03-24T15:09:03.352Z,1.35
2018-03-24T15:11:32.598Z,1.90
2018-03-24T15:14:01.905Z,1.55
2018-03-24T15:16:31.622Z,1.70
2018-03-24T15:19:00.914Z,2.42
2018-03-24T15:21:30.115Z,2.10
2018-03-24T15:23:59.398Z,1.77
2018-03-24T15:26:29.738Z,1.73
2018-03-24T15:29:10.300Z,1.77
2018-03-24T15:31:50.879Z,1.67
2018-03-24T15:34:32.023Z,1.98
2018-03-24T15:37:01.611Z,1.92
2018-03-24T15:39:31.812Z,1.20
2018-03-24T15:42:01.204Z,1.73
2018-03-24T15:44:30.857Z,1.70
2018-03-24T15:47:00.414Z,1.40
2018-03-24T15:49:30.112Z,1.75
2018-03-24T15:51:59.576Z,1.70
2018-03-24T15:54:29.674Z,1.40
2018-03-24T15:56:59.310Z,1.65
2018-03-24T15:59:28.695Z,2.95
2018-03-24T16:01:58.817Z,3.78
2018-03-24T16:04:28.590Z,3.70
2018-03-24T16:06:58.203Z,3.37
2018-03-24T16:09:27.981Z,2.95
2018-03-24T16:11:57.492Z,3.00
2018-03-24T16:14:27.006Z,2.75
2018-03-24T16:16:56.517Z,2.90
2018-03-24T16:19:25.846Z,2.80
2018-03-24T16:21:57.308Z,2.20
2018-03-24T16:24:26.654Z,2.22
2018-03-24T16:26:56.512Z,2.55
2018-03-24T16:29:26.278Z,3.30
2018-03-24T16:31:55.729Z,2.28
2018-03-24T16:34:25.072Z,2.35
2018-03-24T16:36:54.523Z,2.10
2018-03-24T16:39:24.358Z,2.50
2018-03-24T16:41:53.641Z,2.37
2018-03-24T16:44:22.862Z,2.42
2018-03-24T16:46:52.497Z,2.25
2018-03-24T16:49:21.773Z,2.30
2018-03-24T16:51:52.263Z,2.35
2018-03-24T16:54:21.544Z,2.20
2018-03-24T16:56:50.846Z,2.20
2018-03-24T16:59:21.587Z,1.70
2018-03-24T17:01:51.114Z,2.45
2018-03-24T17:04:21.322Z,2.92
2018-03-24T17:06:51.068Z,2.85
2018-03-24T17:09:21.661Z,2.05
2018-03-24T17:11:51.267Z,2.20
2018-03-24T17:14:20.714Z,2.60
2018-03-24T17:16:50.424Z,2.75
2018-03-24T17:19:19.469Z,1.90
2018-03-24T17:21:48.684Z,1.42
2018-03-24T17:24:18.661Z,1.87
2018-03-24T17:26:48.219Z,3.80
2018-03-24T17:29:17.477Z,5.03
2018-03-24T17:31:46.604Z,2.60
2018-03-24T17:34:15.899Z,3.62
2018-03-24T17:36:45.398Z,2.87
2018-03-24T17:39:14.518Z,2.58
2018-03-24T17:41:43.623Z,2.17
2018-03-24T17:44:12.868Z,1.95
2018-03-24T17:46:42.436Z,2.33
2018-03-24T17:49:11.680Z,1.98
2018-03-24T17:51:41.010Z,3.90
2018-03-24T17:54:10.624Z,2.15
2018-03-24T17:56:39.723Z,2.45
2018-03-24T17:59:08.879Z,2.67
2018-03-24T18:01:38.934Z,3.20
2018-03-24T18:04:08.418Z,2.65
2018-03-24T18:06:38.144Z,2.50
2018-03-24T18:09:07.249Z,3.25
2018-03-24T18:11:36.354Z,2.42
2018-03-24T18:14:05.684Z,1.85
2018-03-24T18:16:35.771Z,1.92
2018-03-24T18:19:05.070Z,2.30
2018-03-24T18:21:34.191Z,1.90
2018-03-24T18:24:04.237Z,2.00
2018-03-24T18:26:33.951Z,2.20
2018-03-24T18:29:05.009Z,2.30
2018-03-24T18:31:34.980Z,1.75
2018-03-24T18:34:05.754Z,2.33
2018-03-24T18:36:34.848Z,2.12
2018-03-24T18:39:04.472Z,1.80
2018-03-24T18:41:35.456Z,1.90
2018-03-24T18:44:05.138Z,2.10
2018-03-24T18:46:34.235Z,2.00
2018-03-24T18:49:03.564Z,2.10
2018-03-24T18:51:34.083Z,2.47
2018-03-24T18:54:04.390Z,1.90
2018-03-24T18:56:34.407Z,3.17
2018-03-24T18:59:03.755Z,2.53
2018-03-24T19:01:33.041Z,2.97
2018-03-24T19:04:02.321Z,3.10
2018-03-24T19:06:32.676Z,3.83
2018-03-24T19:09:01.971Z,3.80
2018-03-24T19:11:31.267Z,1.77
2018-03-24T19:14:00.815Z,1.40
2018-03-24T19:16:30.268Z,1.80
2018-03-24T19:18:59.601Z,1.30
2018-03-24T19:21:29.295Z,1.60
2018-03-24T19:23:58.602Z,1.90
2018-03-24T19:26:27.929Z,1.45
2018-03-24T19:28:57.225Z,1.65
2018-03-24T19:31:26.894Z,1.30
2018-03-24T19:33:56.213Z,1.70
2018-03-24T19:36:25.493Z,1.50
2018-03-24T19:38:54.821Z,2.22
2018-03-24T19:41:24.295Z,1.75
2018-03-24T19:43:53.367Z,1.60
2018-03-24T19:46:23.056Z,1.00
2018-03-24T19:48:53.808Z,1.55
2018-03-24T19:51:22.954Z,1.92
2018-03-24T19:53:52.257Z,1.23
2018-03-24T19:56:21.557Z,1.42
2018-03-24T19:58:50.819Z,1.05
2018-03-24T20:01:21.317Z,1.35
2018-03-24T20:03:50.850Z,1.15
2018-03-24T20:06:20.046Z,1.70
2018-03-24T20:08:50.095Z,2.78
2018-03-24T20:11:19.562Z,1.67
2018-03-24T20:13:49.386Z,1.48
2018-03-24T20:16:18.491Z,1.23
2018-03-24T20:18:47.601Z,1.48
2018-03-24T20:21:17.474Z,2.30
2018-03-24T20:23:47.218Z,1.17
2018-03-24T20:26:16.906Z,1.42
2018-03-24T20:28:46.223Z,1.27
2018-03-24T20:31:15.865Z,2.12
2018-03-24T20:33:45.257Z,1.20
2018-03-24T20:36:15.052Z,1.12
2018-03-24T20:38:44.406Z,0.95
2018-03-24T20:41:13.755Z,1.40
2018-03-24T20:43:43.153Z,1.58
2018-03-24T20:46:12.592Z,1.83
2018-03-24T20:48:42.442Z,1.50
2018-03-24T20:51:13.060Z,1.35
2018-03-24T20:53:42.477Z,1.65
2018-03-24T20:56:11.801Z,1.70
2018-03-24T20:58:41.277Z,1.33
2018-03-24T21:01:10.829Z,1.80
2018-03-24T21:03:40.425Z,1.58
2018-03-24T21:06:10.163Z,1.70
2018-03-24T21:08:39.430Z,1.42
2018-03-24T21:11:09.574Z,1.90
2018-03-24T21:13:40.283Z,1.42
2018-03-24T21:16:09.453Z,1.60
2018-03-24T21:18:39.022Z,1.90
2018-03-24T21:21:08.386Z,1.92
2018-03-24T21:23:38.162Z,1.30
2018-03-24T21:26:08.213Z,1.65
2018-03-24T21:28:37.559Z,1.67
2018-03-24T21:31:06.941Z,1.70
2018-03-24T21:33:36.620Z,1.60
2018-03-24T21:36:06.106Z,1.20
2018-03-24T21:38:35.231Z,1.30
2018-03-24T21:41:05.330Z,1.52
2018-03-24T21:43:34.463Z,1.23
2018-03-24T21:46:04.545Z,1.60
2018-03-24T21:48:33.921Z,1.92
2018-03-24T21:51:03.350Z,2.00
2018-03-24T21:53:32.745Z,2.55
2018-03-24T21:56:02.762Z,2.92
2018-03-24T21:58:32.469Z,3.85
2018-03-24T22:01:05.735Z,2.20
2018-03-24T22:03:32.237Z,2.28
2018-03-24T22:06:01.677Z,1.75
2018-03-24T22:08:31.773Z,1.70
2018-03-24T22:11:01.996Z,1.50
2018-03-24T22:13:32.292Z,1.67
2018-03-24T22:16:01.574Z,3.08
2018-03-24T22:18:31.159Z,1.70
2018-03-24T22:21:00.784Z,2.08
2018-03-24T22:23:30.659Z,1.30
2018-03-24T22:25:59.817Z,1.77
2018-03-24T22:28:29.278Z,1.70
2018-03-24T22:30:58.840Z,1.70
2018-03-24T22:33:28.859Z,1.60
2018-03-24T22:36:00.059Z,1.70
2018-03-24T22:38:29.958Z,1.90
2018-03-24T22:40:59.266Z,1.62
2018-03-24T22:43:28.675Z,1.35
2018-03-24T22:45:58.102Z,1.65
2018-03-24T22:48:27.711Z,1.70
2018-03-24T22:50:57.221Z,1.50
2018-03-24T22:53:26.724Z,1.25
2018-03-24T22:55:56.155Z,1.33
2018-03-24T22:58:25.670Z,1.00
2018-03-24T23:00:55.143Z,1.50
2018-03-24T23:03:24.715Z,1.65
2018-03-24T23:05:54.385Z,1.70
2018-03-24T23:08:23.736Z,1.80
2018-03-24T23:10:53.405Z,1.05
2018-03-24T23:13:23.424Z,1.40
2018-03-24T23:15:52.735Z,2.40
2018-03-24T23:18:22.566Z,1.37
2018-03-24T23:20:53.068Z,1.40
2018-03-24T23:23:22.318Z,1.55
2018-03-24T23:25:53.316Z,1.70
2018-03-24T23:28:22.744Z,1.75
2018-03-24T23:30:54.151Z,1.30
2018-03-24T23:33:23.809Z,1.80
2018-03-24T23:35:56.661Z,1.35
2018-03-24T23:38:28.576Z,1.98
2018-03-24T23:40:59.812Z,2.28
2018-03-24T23:43:29.206Z,1.40
2018-03-24T23:46:02.950Z,1.70
2018-03-24T23:48:32.119Z,1.70
2018-03-24T23:51:01.447Z,1.50
2018-03-24T23:53:30.772Z,2.10
2018-03-24T23:56:00.209Z,1.80
2018-03-24T23:58:29.354Z,1.45
